sensor_id;sensor_type;location;lat;lon;timestamp;P1;durP1;ratioP1;P2;durP2;ratioP2
17504;SDS011;8870;50.950;11.762;2023-12-04T00:00:07;13.50;;;11.30;;
17504;SDS011;8870;50.950;11.762;2023-12-04T00:05:25;11.55;;;10.10;;
17504;SDS011;8870;50.950;11.762;2023-12-04T00:10:56;12.40;;;10.25;;
17504;SDS011;8870;50.950;11.762;2023-12-04T00:16:17;13.65;;;11.48;;
17504;SDS011;8870;50.950;11.762;2023-12-04T00:21:48;12.10;;;10.50;;
17504;SDS011;8870;50.950;11.762;2023-12-04T00:27:07;12.98;;;10.50;;
17504;SDS011;8870;50.950;11.762;2023-12-04T00:32:40;11.88;;;9.98;;
17504;SDS011;8870;50.950;11.762;2023-12-04T00:37:59;12.20;;;9.77;;
17504;SDS011;8870;50.950;11.762;2023-12-04T00:43:29;11.23;;;9.60;;
17504;SDS011;8870;50.950;11.762;2023-12-04T00:48:50;11.52;;;10.32;;
17504;SDS011;8870;50.950;11.762;2023-12-04T00:54:21;11.13;;;9.35;;
17504;SDS011;8870;50.950;11.762;2023-12-04T00:59:39;10.85;;;9.32;;
17504;SDS011;8870;50.950;11.762;2023-12-04T01:05:13;11.73;;;10.15;;
17504;SDS011;8870;50.950;11.762;2023-12-04T01:10:32;11.20;;;9.48;;
17504;SDS011;8870;50.950;11.762;2023-12-04T01:16:04;11.13;;;9.38;;
17504;SDS011;8870;50.950;11.762;2023-12-04T01:21:26;11.73;;;9.90;;
17504;SDS011;8870;50.950;11.762;2023-12-04T01:26:57;10.60;;;8.68;;
17504;SDS011;8870;50.950;11.762;2023-12-04T01:32:15;10.20;;;8.90;;
17504;SDS011;8870;50.950;11.762;2023-12-04T01:37:50;9.10;;;7.97;;
17504;SDS011;8870;50.950;11.762;2023-12-04T01:43:09;8.93;;;8.02;;
17504;SDS011;8870;50.950;11.762;2023-12-04T01:48:39;9.85;;;8.27;;
17504;SDS011;8870;50.950;11.762;2023-12-04T01:54:00;9.65;;;8.18;;
17504;SDS011;8870;50.950;11.762;2023-12-04T01:59:35;8.43;;;7.63;;
17504;SDS011;8870;50.950;11.762;2023-12-04T02:05:00;9.30;;;8.10;;
17504;SDS011;8870;50.950;11.762;2023-12-04T02:10:36;8.48;;;7.38;;
17504;SDS011;8870;50.950;11.762;2023-12-04T02:15:55;7.85;;;6.70;;
17504;SDS011;8870;50.950;11.762;2023-12-04T02:21:28;8.27;;;6.68;;
17504;SDS011;8870;50.950;11.762;2023-12-04T02:26:52;8.80;;;6.95;;
17504;SDS011;8870;50.950;11.762;2023-12-04T02:32:26;8.27;;;6.88;;
17504;SDS011;8870;50.950;11.762;2023-12-04T02:37:47;7.75;;;6.15;;
17504;SDS011;8870;50.950;11.762;2023-12-04T02:43:22;7.47;;;6.30;;
17504;SDS011;8870;50.950;11.762;2023-12-04T02:48:41;7.45;;;6.55;;
17504;SDS011;8870;50.950;11.762;2023-12-04T02:54:12;7.88;;;6.75;;
17504;SDS011;8870;50.950;11.762;2023-12-04T02:59:32;6.90;;;6.20;;
17504;SDS011;8870;50.950;11.762;2023-12-04T03:05:04;6.55;;;5.85;;
17504;SDS011;8870;50.950;11.762;2023-12-04T03:10:23;7.22;;;6.53;;
17504;SDS011;8870;50.950;11.762;2023-12-04T03:15:56;7.85;;;6.75;;
17504;SDS011;8870;50.950;11.762;2023-12-04T03:21:15;8.02;;;6.72;;
17504;SDS011;8870;50.950;11.762;2023-12-04T03:26:45;6.80;;;5.97;;
17504;SDS011;8870;50.950;11.762;2023-12-04T03:32:06;6.72;;;5.75;;
17504;SDS011;8870;50.950;11.762;2023-12-04T03:37:39;6.88;;;5.85;;
17504;SDS011;8870;50.950;11.762;2023-12-04T03:42:58;6.82;;;5.78;;
17504;SDS011;8870;50.950;11.762;2023-12-04T03:48:31;7.80;;;5.85;;
17504;SDS011;8870;50.950;11.762;2023-12-04T03:53:50;6.72;;;6.03;;
17504;SDS011;8870;50.950;11.762;2023-12-04T03:59:20;7.07;;;5.75;;
17504;SDS011;8870;50.950;11.762;2023-12-04T04:04:41;7.30;;;5.60;;
17504;SDS011;8870;50.950;11.762;2023-12-04T04:10:12;7.80;;;5.82;;
17504;SDS011;8870;50.950;11.762;2023-12-04T04:15:31;6.65;;;5.65;;
17504;SDS011;8870;50.950;11.762;2023-12-04T04:21:05;6.55;;;5.72;;
17504;SDS011;8870;50.950;11.762;2023-12-04T04:26:24;6.75;;;5.55;;
17504;SDS011;8870;50.950;11.762;2023-12-04T04:31:54;6.63;;;5.90;;
17504;SDS011;8870;50.950;11.762;2023-12-04T04:37:15;7.25;;;6.20;;
17504;SDS011;8870;50.950;11.762;2023-12-04T04:42:46;7.35;;;5.53;;
17504;SDS011;8870;50.950;11.762;2023-12-04T04:48:05;6.82;;;5.80;;
17504;SDS011;8870;50.950;11.762;2023-12-04T04:53:39;6.95;;;5.97;;
17504;SDS011;8870;50.950;11.762;2023-12-04T04:58:58;7.10;;;5.80;;
17504;SDS011;8870;50.950;11.762;2023-12-04T05:04:28;7.28;;;5.97;;
17504;SDS011;8870;50.950;11.762;2023-12-04T05:09:50;7.45;;;5.75;;
17504;SDS011;8870;50.950;11.762;2023-12-04T05:15:22;6.85;;;6.10;;
17504;SDS011;8870;50.950;11.762;2023-12-04T05:20:41;6.32;;;5.53;;
17504;SDS011;8870;50.950;11.762;2023-12-04T05:26:14;7.15;;;5.85;;
17504;SDS011;8870;50.950;11.762;2023-12-04T05:31:33;6.13;;;5.53;;
17504;SDS011;8870;50.950;11.762;2023-12-04T05:37:04;6.88;;;5.47;;
17504;SDS011;8870;50.950;11.762;2023-12-04T05:42:24;6.07;;;5.25;;
17504;SDS011;8870;50.950;11.762;2023-12-04T05:47:55;6.70;;;5.78;;
17504;SDS011;8870;50.950;11.762;2023-12-04T05:53:14;6.95;;;5.60;;
17504;SDS011;8870;50.950;11.762;2023-12-04T05:58:47;5.90;;;5.22;;
17504;SDS011;8870;50.950;11.762;2023-12-04T06:04:06;5.90;;;5.25;;
17504;SDS011;8870;50.950;11.762;2023-12-04T06:09:37;6.07;;;5.28;;
17504;SDS011;8870;50.950;11.762;2023-12-04T06:14:57;5.68;;;4.85;;
17504;SDS011;8870;50.950;11.762;2023-12-04T06:20:29;5.70;;;5.10;;
17504;SDS011;8870;50.950;11.762;2023-12-04T06:25:47;5.32;;;4.82;;
17504;SDS011;8870;50.950;11.762;2023-12-04T06:31:21;5.53;;;4.50;;
17504;SDS011;8870;50.950;11.762;2023-12-04T06:36:41;5.78;;;4.95;;
17504;SDS011;8870;50.950;11.762;2023-12-04T06:42:13;5.43;;;4.40;;
17504;SDS011;8870;50.950;11.762;2023-12-04T06:47:34;5.40;;;4.60;;
17504;SDS011;8870;50.950;11.762;2023-12-04T06:53:07;4.68;;;4.05;;
17504;SDS011;8870;50.950;11.762;2023-12-04T06:58:26;5.40;;;4.05;;
17504;SDS011;8870;50.950;11.762;2023-12-04T07:03:59;5.75;;;4.55;;
17504;SDS011;8870;50.950;11.762;2023-12-04T07:09:24;4.72;;;4.20;;
17504;SDS011;8870;50.950;11.762;2023-12-04T07:14:55;5.40;;;4.05;;
17504;SDS011;8870;50.950;11.762;2023-12-04T07:20:16;5.25;;;4.00;;
17504;SDS011;8870;50.950;11.762;2023-12-04T07:25:48;4.35;;;3.95;;
17504;SDS011;8870;50.950;11.762;2023-12-04T07:31:07;4.70;;;4.20;;
17504;SDS011;8870;50.950;11.762;2023-12-04T07:36:40;4.40;;;3.97;;
17504;SDS011;8870;50.950;11.762;2023-12-04T07:41:59;4.70;;;4.00;;
17504;SDS011;8870;50.950;11.762;2023-12-04T07:47:30;4.55;;;4.05;;
17504;SDS011;8870;50.950;11.762;2023-12-04T07:53:04;4.25;;;3.85;;
17504;SDS011;8870;50.950;11.762;2023-12-04T07:58:25;4.47;;;3.72;;
17504;SDS011;8870;50.950;11.762;2023-12-04T08:03:55;4.20;;;3.67;;
17504;SDS011;8870;50.950;11.762;2023-12-04T08:09:16;4.55;;;3.90;;
17504;SDS011;8870;50.950;11.762;2023-12-04T08:14:49;4.50;;;4.10;;
17504;SDS011;8870;50.950;11.762;2023-12-04T08:20:07;4.32;;;3.40;;
17504;SDS011;8870;50.950;11.762;2023-12-04T08:25:53;7.75;;;4.03;;
17504;SDS011;8870;50.950;11.762;2023-12-04T08:31:12;4.00;;;3.60;;
17504;SDS011;8870;50.950;11.762;2023-12-04T08:36:42;4.53;;;3.90;;
17504;SDS011;8870;50.950;11.762;2023-12-04T08:42:03;5.28;;;4.55;;
17504;SDS011;8870;50.950;11.762;2023-12-04T08:47:37;4.65;;;4.15;;
17504;SDS011;8870;50.950;11.762;2023-12-04T08:53:10;4.88;;;4.22;;
17504;SDS011;8870;50.950;11.762;2023-12-04T08:58:31;4.78;;;4.15;;
17504;SDS011;8870;50.950;11.762;2023-12-04T09:04:03;5.07;;;4.28;;
17504;SDS011;8870;50.950;11.762;2023-12-04T09:09:21;4.63;;;3.90;;
17504;SDS011;8870;50.950;11.762;2023-12-04T09:14:56;4.85;;;4.32;;
17504;SDS011;8870;50.950;11.762;2023-12-04T09:20:27;5.00;;;4.30;;
17504;SDS011;8870;50.950;11.762;2023-12-04T09:25:46;4.18;;;3.78;;
17504;SDS011;8870;50.950;11.762;2023-12-04T09:31:19;3.80;;;3.40;;
17504;SDS011;8870;50.950;11.762;2023-12-04T09:36:39;3.65;;;3.35;;
17504;SDS011;8870;50.950;11.762;2023-12-04T09:42:23;3.75;;;3.40;;
17504;SDS011;8870;50.950;11.762;2023-12-04T09:47:43;4.03;;;3.58;;
17504;SDS011;8870;50.950;11.762;2023-12-04T09:53:17;4.25;;;3.22;;
17504;SDS011;8870;50.950;11.762;2023-12-04T09:58:35;3.75;;;3.25;;
17504;SDS011;8870;50.950;11.762;2023-12-04T10:04:13;3.35;;;2.80;;
17504;SDS011;8870;50.950;11.762;2023-12-04T10:09:32;4.97;;;3.20;;
17504;SDS011;8870;50.950;11.762;2023-12-04T10:15:03;4.18;;;2.97;;
17504;SDS011;8870;50.950;11.762;2023-12-04T10:20:25;3.20;;;2.90;;
17504;SDS011;8870;50.950;11.762;2023-12-04T10:25:59;4.25;;;2.90;;
17504;SDS011;8870;50.950;11.762;2023-12-04T10:31:19;3.50;;;3.15;;
17504;SDS011;8870;50.950;11.762;2023-12-04T10:36:52;2.83;;;2.60;;
17504;SDS011;8870;50.950;11.762;2023-12-04T10:42:11;3.00;;;2.70;;
17504;SDS011;8870;50.950;11.762;2023-12-04T10:47:42;3.80;;;3.03;;
17504;SDS011;8870;50.950;11.762;2023-12-04T10:53:05;3.22;;;2.65;;
17504;SDS011;8870;50.950;11.762;2023-12-04T10:58:38;3.13;;;2.83;;
17504;SDS011;8870;50.950;11.762;2023-12-04T11:03:59;2.95;;;2.67;;
17504;SDS011;8870;50.950;11.762;2023-12-04T11:09:36;3.33;;;2.63;;
17504;SDS011;8870;50.950;11.762;2023-12-04T11:14:56;3.35;;;2.47;;
17504;SDS011;8870;50.950;11.762;2023-12-04T11:20:33;2.47;;;2.28;;
17504;SDS011;8870;50.950;11.762;2023-12-04T11:25:59;3.58;;;2.95;;
17504;SDS011;8870;50.950;11.762;2023-12-04T11:31:32;3.47;;;2.85;;
17504;SDS011;8870;50.950;11.762;2023-12-04T11:36:57;2.25;;;2.03;;
17504;SDS011;8870;50.950;11.762;2023-12-04T11:42:32;2.15;;;1.98;;
17504;SDS011;8870;50.950;11.762;2023-12-04T11:47:58;2.60;;;2.28;;
17504;SDS011;8870;50.950;11.762;2023-12-04T11:53:29;3.80;;;2.50;;
17504;SDS011;8870;50.950;11.762;2023-12-04T11:58:49;2.65;;;2.40;;
17504;SDS011;8870;50.950;11.762;2023-12-04T12:04:22;2.60;;;2.20;;
17504;SDS011;8870;50.950;11.762;2023-12-04T12:09:40;4.22;;;2.13;;
17504;SDS011;8870;50.950;11.762;2023-12-04T12:15:14;2.50;;;2.15;;
17504;SDS011;8870;50.950;11.762;2023-12-04T12:20:35;2.45;;;1.98;;
17504;SDS011;8870;50.950;11.762;2023-12-04T12:26:07;3.05;;;2.03;;
17504;SDS011;8870;50.950;11.762;2023-12-04T12:31:28;2.25;;;2.05;;
17504;SDS011;8870;50.950;11.762;2023-12-04T12:37:01;2.25;;;2.00;;
17504;SDS011;8870;50.950;11.762;2023-12-04T12:42:23;2.13;;;1.83;;
17504;SDS011;8870;50.950;11.762;2023-12-04T12:47:58;2.67;;;2.05;;
17504;SDS011;8870;50.950;11.762;2023-12-04T12:53:17;1.90;;;1.70;;
17504;SDS011;8870;50.950;11.762;2023-12-04T12:58:49;2.42;;;1.88;;
17504;SDS011;8870;50.950;11.762;2023-12-04T13:04:13;1.92;;;1.73;;
17504;SDS011;8870;50.950;11.762;2023-12-04T13:09:46;2.17;;;1.70;;
17504;SDS011;8870;50.950;11.762;2023-12-04T13:15:05;2.88;;;1.67;;
17504;SDS011;8870;50.950;11.762;2023-12-04T13:20:39;2.33;;;2.00;;
17504;SDS011;8870;50.950;11.762;2023-12-04T13:25:58;2.10;;;1.90;;
17504;SDS011;8870;50.950;11.762;2023-12-04T13:31:32;1.85;;;1.67;;
17504;SDS011;8870;50.950;11.762;2023-12-04T13:36:53;1.77;;;1.60;;
17504;SDS011;8870;50.950;11.762;2023-12-04T13:42:26;1.95;;;1.73;;
17504;SDS011;8870;50.950;11.762;2023-12-04T13:47:56;2.63;;;1.80;;
17504;SDS011;8870;50.950;11.762;2023-12-04T13:53:31;2.42;;;1.90;;
17504;SDS011;8870;50.950;11.762;2023-12-04T13:58:50;1.85;;;1.67;;
17504;SDS011;8870;50.950;11.762;2023-12-04T14:04:24;2.53;;;1.90;;
17504;SDS011;8870;50.950;11.762;2023-12-04T14:09:44;2.72;;;2.05;;
17504;SDS011;8870;50.950;11.762;2023-12-04T14:15:16;2.15;;;1.95;;
17504;SDS011;8870;50.950;11.762;2023-12-04T14:20:35;2.22;;;2.03;;
17504;SDS011;8870;50.950;11.762;2023-12-04T14:26:09;2.13;;;1.92;;
17504;SDS011;8870;50.950;11.762;2023-12-04T14:31:27;2.55;;;2.25;;
17504;SDS011;8870;50.950;11.762;2023-12-04T14:36:58;2.67;;;2.15;;
17504;SDS011;8870;50.950;11.762;2023-12-04T14:42:18;2.53;;;2.33;;
17504;SDS011;8870;50.950;11.762;2023-12-04T14:47:50;3.40;;;2.22;;
17504;SDS011;8870;50.950;11.762;2023-12-04T14:53:21;2.95;;;2.20;;
17504;SDS011;8870;50.950;11.762;2023-12-04T14:58:52;2.72;;;2.20;;
17504;SDS011;8870;50.950;11.762;2023-12-04T15:04:42;2.88;;;2.30;;
17504;SDS011;8870;50.950;11.762;2023-12-04T15:10:18;3.05;;;2.50;;
17504;SDS011;8870;50.950;11.762;2023-12-04T15:16:26;3.78;;;2.70;;
17504;SDS011;8870;50.950;11.762;2023-12-04T15:21:51;2.60;;;2.35;;
17504;SDS011;8870;50.950;11.762;2023-12-04T15:27:22;2.60;;;2.40;;
17504;SDS011;8870;50.950;11.762;2023-12-04T15:32:44;3.40;;;2.50;;
17504;SDS011;8870;50.950;11.762;2023-12-04T15:38:16;2.92;;;2.42;;
17504;SDS011;8870;50.950;11.762;2023-12-04T15:43:34;3.90;;;2.50;;
17504;SDS011;8870;50.950;11.762;2023-12-04T15:49:10;3.88;;;2.42;;
17504;SDS011;8870;50.950;11.762;2023-12-04T15:54:41;2.47;;;2.28;;
17504;SDS011;8870;50.950;11.762;2023-12-04T15:59:59;3.20;;;2.80;;
17504;SDS011;8870;50.950;11.762;2023-12-04T16:05:33;3.60;;;2.60;;
17504;SDS011;8870;50.950;11.762;2023-12-04T16:10:52;3.50;;;3.13;;
17504;SDS011;8870;50.950;11.762;2023-12-04T16:16:25;3.70;;;2.78;;
17504;SDS011;8870;50.950;11.762;2023-12-04T16:21:45;3.45;;;2.67;;
17504;SDS011;8870;50.950;11.762;2023-12-04T16:27:18;3.33;;;2.70;;
17504;SDS011;8870;50.950;11.762;2023-12-04T16:32:36;3.22;;;2.80;;
17504;SDS011;8870;50.950;11.762;2023-12-04T16:38:09;3.20;;;2.85;;
17504;SDS011;8870;50.950;11.762;2023-12-04T16:43:28;3.10;;;2.67;;
17504;SDS011;8870;50.950;11.762;2023-12-04T16:48:59;3.25;;;2.95;;
17504;SDS011;8870;50.950;11.762;2023-12-04T16:54:21;3.08;;;2.78;;
17504;SDS011;8870;50.950;11.762;2023-12-04T16:59:52;3.33;;;2.80;;
17504;SDS011;8870;50.950;11.762;2023-12-04T17:05:10;3.67;;;3.17;;
17504;SDS011;8870;50.950;11.762;2023-12-04T17:10:44;4.18;;;3.30;;
17504;SDS011;8870;50.950;11.762;2023-12-04T17:16:03;4.28;;;3.40;;
17504;SDS011;8870;50.950;11.762;2023-12-04T17:21:37;4.80;;;3.75;;
17504;SDS011;8870;50.950;11.762;2023-12-04T17:26:59;4.20;;;3.38;;
17504;SDS011;8870;50.950;11.762;2023-12-04T17:32:31;6.25;;;3.90;;
17504;SDS011;8870;50.950;11.762;2023-12-04T17:37:49;4.25;;;3.45;;
17504;SDS011;8870;50.950;11.762;2023-12-04T17:43:22;3.55;;;3.20;;
17504;SDS011;8870;50.950;11.762;2023-12-04T17:48:41;3.97;;;3.55;;
17504;SDS011;8870;50.950;11.762;2023-12-04T17:54:12;4.10;;;3.53;;
17504;SDS011;8870;50.950;11.762;2023-12-04T17:59:32;4.80;;;3.38;;
17504;SDS011;8870;50.950;11.762;2023-12-04T18:05:04;4.60;;;3.42;;
17504;SDS011;8870;50.950;11.762;2023-12-04T18:10:25;4.07;;;3.67;;
17504;SDS011;8870;50.950;11.762;2023-12-04T18:15:59;4.15;;;3.47;;
17504;SDS011;8870;50.950;11.762;2023-12-04T18:21:18;3.88;;;3.42;;
17504;SDS011;8870;50.950;11.762;2023-12-04T18:26:50;5.88;;;4.07;;
17504;SDS011;8870;50.950;11.762;2023-12-04T18:32:12;7.00;;;4.10;;
17504;SDS011;8870;50.950;11.762;2023-12-04T18:37:45;5.15;;;3.70;;
17504;SDS011;8870;50.950;11.762;2023-12-04T18:43:12;5.30;;;4.80;;
17504;SDS011;8870;50.950;11.762;2023-12-04T18:48:47;7.00;;;4.00;;
17504;SDS011;8870;50.950;11.762;2023-12-04T18:54:07;4.47;;;3.90;;
17504;SDS011;8870;50.950;11.762;2023-12-04T18:59:38;4.85;;;4.35;;
17504;SDS011;8870;50.950;11.762;2023-12-04T19:04:58;3.92;;;3.47;;
17504;SDS011;8870;50.950;11.762;2023-12-04T19:10:30;4.72;;;3.78;;
17504;SDS011;8870;50.950;11.762;2023-12-04T19:15:48;4.85;;;4.10;;
17504;SDS011;8870;50.950;11.762;2023-12-04T19:21:21;5.47;;;4.20;;
17504;SDS011;8870;50.950;11.762;2023-12-04T19:26:40;6.30;;;4.20;;
17504;SDS011;8870;50.950;11.762;2023-12-04T19:32:11;5.38;;;4.53;;
17504;SDS011;8870;50.950;11.762;2023-12-04T19:37:33;5.70;;;4.75;;
17504;SDS011;8870;50.950;11.762;2023-12-04T19:43:04;5.18;;;4.20;;
17504;SDS011;8870;50.950;11.762;2023-12-04T19:48:35;5.50;;;4.70;;
17504;SDS011;8870;50.950;11.762;2023-12-04T19:53:56;5.07;;;4.50;;
17504;SDS011;8870;50.950;11.762;2023-12-04T19:59:27;5.63;;;4.22;;
17504;SDS011;8870;50.950;11.762;2023-12-04T20:04:45;4.72;;;4.22;;
17504;SDS011;8870;50.950;11.762;2023-12-04T20:10:18;5.45;;;4.80;;
17504;SDS011;8870;50.950;11.762;2023-12-04T20:15:37;5.50;;;4.72;;
17504;SDS011;8870;50.950;11.762;2023-12-04T20:21:08;5.50;;;4.50;;
17504;SDS011;8870;50.950;11.762;2023-12-04T20:26:29;6.07;;;5.47;;
17504;SDS011;8870;50.950;11.762;2023-12-04T20:32:01;5.75;;;5.00;;
17504;SDS011;8870;50.950;11.762;2023-12-04T20:37:19;5.50;;;4.75;;
17504;SDS011;8870;50.950;11.762;2023-12-04T20:42:58;6.03;;;5.28;;
17504;SDS011;8870;50.950;11.762;2023-12-04T20:48:17;8.88;;;5.45;;
17504;SDS011;8870;50.950;11.762;2023-12-04T20:53:48;5.78;;;4.93;;
17504;SDS011;8870;50.950;11.762;2023-12-04T20:59:08;6.72;;;5.32;;
17504;SDS011;8870;50.950;11.762;2023-12-04T21:04:40;5.72;;;4.82;;
17504;SDS011;8870;50.950;11.762;2023-12-04T21:09:58;5.90;;;5.10;;
17504;SDS011;8870;50.950;11.762;2023-12-04T21:15:31;6.22;;;4.90;;
17504;SDS011;8870;50.950;11.762;2023-12-04T21:20:50;5.95;;;4.70;;
17504;SDS011;8870;50.950;11.762;2023-12-04T21:26:21;7.07;;;5.65;;
17504;SDS011;8870;50.950;11.762;2023-12-04T21:31:42;5.70;;;4.93;;
17504;SDS011;8870;50.950;11.762;2023-12-04T21:37:14;6.18;;;4.90;;
17504;SDS011;8870;50.950;11.762;2023-12-04T21:42:33;5.97;;;5.20;;
17504;SDS011;8870;50.950;11.762;2023-12-04T21:48:07;6.00;;;5.35;;
17504;SDS011;8870;50.950;11.762;2023-12-04T21:53:26;6.55;;;4.80;;
17504;SDS011;8870;50.950;11.762;2023-12-04T21:58:58;6.28;;;5.13;;
17504;SDS011;8870;50.950;11.762;2023-12-04T22:04:30;6.10;;;4.80;;
17504;SDS011;8870;50.950;11.762;2023-12-04T22:10:01;5.97;;;5.38;;
17504;SDS011;8870;50.950;11.762;2023-12-04T22:15:20;6.13;;;5.28;;
17504;SDS011;8870;50.950;11.762;2023-12-04T22:20:53;7.30;;;5.85;;
17504;SDS011;8870;50.950;11.762;2023-12-04T22:26:12;7.40;;;5.53;;
17504;SDS011;8870;50.950;11.762;2023-12-04T22:31:44;6.75;;;5.57;;
17504;SDS011;8870;50.950;11.762;2023-12-04T22:37:07;6.43;;;5.20;;
17504;SDS011;8870;50.950;11.762;2023-12-04T22:42:38;6.95;;;5.82;;
17504;SDS011;8870;50.950;11.762;2023-12-04T22:47:57;7.20;;;5.65;;
17504;SDS011;8870;50.950;11.762;2023-12-04T22:53:30;7.88;;;5.70;;
17504;SDS011;8870;50.950;11.762;2023-12-04T22:58:49;6.80;;;5.78;;
17504;SDS011;8870;50.950;11.762;2023-12-04T23:04:20;7.68;;;6.40;;
17504;SDS011;8870;50.950;11.762;2023-12-04T23:09:41;7.40;;;6.35;;
17504;SDS011;8870;50.950;11.762;2023-12-04T23:15:12;7.10;;;6.13;;
17504;SDS011;8870;50.950;11.762;2023-12-04T23:20:30;7.25;;;5.88;;
17504;SDS011;8870;50.950;11.762;2023-12-04T23:26:04;6.85;;;5.80;;
17504;SDS011;8870;50.950;11.762;2023-12-04T23:31:22;6.47;;;5.63;;
17504;SDS011;8870;50.950;11.762;2023-12-04T23:36:53;7.80;;;5.85;;
17504;SDS011;8870;50.950;11.762;2023-12-04T23:42:14;7.38;;;6.15;;
17504;SDS011;8870;50.950;11.762;2023-12-04T23:47:45;6.25;;;5.53;;
17504;SDS011;8870;50.950;11.762;2023-12-04T23:53:03;7.88;;;6.15;;
17504;SDS011;8870;50.950;11.762;2023-12-04T23:58:36;7.78;;;6.03;;
